sensor_id;sensor_type;location;lat;lon;timestamp;pressure;altitude;pressure_sealevel;temperature;humidity
76460;BME280;65299;46.084;18.762;2023-04-24T00:02:18;99840.81;;;15.58;55.12
76460;BME280;65299;46.084;18.762;2023-04-24T00:05:18;99826.69;;;15.66;54.44
76460;BME280;65299;46.084;18.762;2023-04-24T00:08:19;99820.59;;;15.43;56.02
76460;BME280;65299;46.084;18.762;2023-04-24T00:11:19;99813.25;;;15.49;55.72
76460;BME280;65299;46.084;18.762;2023-04-24T00:14:20;99814.69;;;15.55;54.92
76460;BME280;65299;46.084;18.762;2023-04-24T00:17:20;99804.00;;;15.55;55.65
76460;BME280;65299;46.084;18.762;2023-04-24T00:20:21;99803.34;;;15.49;55.73
76460;BME280;65299;46.084;18.762;2023-04-24T00:23:22;99802.25;;;15.50;54.45
76460;BME280;65299;46.084;18.762;2023-04-24T00:26:23;99794.13;;;15.42;55.41
76460;BME280;65299;46.084;18.762;2023-04-24T00:29:23;99790.41;;;15.43;56.08
76460;BME280;65299;46.084;18.762;2023-04-24T00:32:23;99783.94;;;15.22;55.38
76460;BME280;65299;46.084;18.762;2023-04-24T00:35:24;99779.47;;;15.31;54.51
76460;BME280;65299;46.084;18.762;2023-04-24T00:38:24;99780.97;;;15.23;55.36
76460;BME280;65299;46.084;18.762;2023-04-24T00:41:25;99790.91;;;15.31;56.48
76460;BME280;65299;46.084;18.762;2023-04-24T00:44:25;99782.19;;;15.17;56.32
76460;BME280;65299;46.084;18.762;2023-04-24T00:47:26;99778.50;;;15.05;56.86
76460;BME280;65299;46.084;18.762;2023-04-24T00:50:28;99780.56;;;15.08;55.61
76460;BME280;65299;46.084;18.762;2023-04-24T00:53:28;99783.47;;;14.98;56.64
76460;BME280;65299;46.084;18.762;2023-04-24T00:56:29;99780.88;;;15.06;56.59
76460;BME280;65299;46.084;18.762;2023-04-24T00:59:29;99782.59;;;14.88;56.65
76460;BME280;65299;46.084;18.762;2023-04-24T01:02:30;99779.19;;;14.74;58.01
76460;BME280;65299;46.084;18.762;2023-04-24T01:05:31;99781.44;;;14.59;58.09
76460;BME280;65299;46.084;18.762;2023-04-24T01:08:32;99787.84;;;14.71;57.12
76460;BME280;65299;46.084;18.762;2023-04-24T01:11:34;99779.09;;;14.79;56.16
76460;BME280;65299;46.084;18.762;2023-04-24T01:14:34;99781.38;;;14.72;57.29
76460;BME280;65299;46.084;18.762;2023-04-24T01:17:35;99785.41;;;14.83;55.59
76460;BME280;65299;46.084;18.762;2023-04-24T01:20:36;99783.34;;;14.80;55.84
76460;BME280;65299;46.084;18.762;2023-04-24T01:23:40;99778.19;;;14.84;56.95
76460;BME280;65299;46.084;18.762;2023-04-24T01:26:40;99776.03;;;14.72;56.18
76460;BME280;65299;46.084;18.762;2023-04-24T01:29:41;99773.72;;;14.57;55.79
76460;BME280;65299;46.084;18.762;2023-04-24T01:32:41;99779.66;;;14.68;55.58
76460;BME280;65299;46.084;18.762;2023-04-24T01:35:44;99777.03;;;14.76;56.02
76460;BME280;65299;46.084;18.762;2023-04-24T01:38:45;99771.69;;;14.98;54.85
76460;BME280;65299;46.084;18.762;2023-04-24T01:41:46;99779.53;;;14.95;54.56
76460;BME280;65299;46.084;18.762;2023-04-24T01:44:46;99777.66;;;14.95;55.18
76460;BME280;65299;46.084;18.762;2023-04-24T01:47:47;99785.41;;;15.06;56.81
76460;BME280;65299;46.084;18.762;2023-04-24T01:50:49;99781.72;;;14.93;61.08
76460;BME280;65299;46.084;18.762;2023-04-24T01:53:49;99777.75;;;14.90;57.26
76460;BME280;65299;46.084;18.762;2023-04-24T01:56:49;99778.00;;;14.80;57.49
76460;BME280;65299;46.084;18.762;2023-04-24T01:59:51;99777.88;;;14.50;58.91
76460;BME280;65299;46.084;18.762;2023-04-24T02:02:51;99778.22;;;14.70;59.58
76460;BME280;65299;46.084;18.762;2023-04-24T02:05:52;99777.13;;;14.49;60.29
76460;BME280;65299;46.084;18.762;2023-04-24T02:08:52;99771.56;;;14.59;59.82
76460;BME280;65299;46.084;18.762;2023-04-24T02:11:53;99772.91;;;14.35;61.12
76460;BME280;65299;46.084;18.762;2023-04-24T02:14:53;99769.59;;;14.38;60.44
76460;BME280;65299;46.084;18.762;2023-04-24T02:17:54;99765.88;;;14.39;61.05
76460;BME280;65299;46.084;18.762;2023-04-24T02:20:54;99764.59;;;14.23;60.75
76460;BME280;65299;46.084;18.762;2023-04-24T02:23:55;99761.31;;;14.12;61.79
76460;BME280;65299;46.084;18.762;2023-04-24T02:26:55;99755.28;;;14.20;60.82
76460;BME280;65299;46.084;18.762;2023-04-24T02:29:56;99745.91;;;14.09;61.10
76460;BME280;65299;46.084;18.762;2023-04-24T02:32:56;99742.06;;;14.01;61.52
76460;BME280;65299;46.084;18.762;2023-04-24T02:35:56;99751.66;;;14.02;61.45
76460;BME280;65299;46.084;18.762;2023-04-24T02:38:57;99748.19;;;14.02;61.62
76460;BME280;65299;46.084;18.762;2023-04-24T02:41:57;99740.09;;;13.93;61.56
76460;BME280;65299;46.084;18.762;2023-04-24T02:44:58;99741.00;;;14.02;61.29
76460;BME280;65299;46.084;18.762;2023-04-24T02:47:58;99742.03;;;14.15;61.08
76460;BME280;65299;46.084;18.762;2023-04-24T02:50:59;99738.59;;;14.01;61.80
76460;BME280;65299;46.084;18.762;2023-04-24T02:53:59;99734.84;;;14.02;61.92
76460;BME280;65299;46.084;18.762;2023-04-24T02:57:00;99729.34;;;13.98;61.77
76460;BME280;65299;46.084;18.762;2023-04-24T03:00:01;99733.88;;;13.98;61.50
76460;BME280;65299;46.084;18.762;2023-04-24T03:03:01;99731.97;;;14.12;61.52
76460;BME280;65299;46.084;18.762;2023-04-24T03:06:03;99723.47;;;14.10;61.92
76460;BME280;65299;46.084;18.762;2023-04-24T03:09:05;99714.50;;;13.79;63.50
76460;BME280;65299;46.084;18.762;2023-04-24T03:12:06;99727.34;;;13.77;63.93
76460;BME280;65299;46.084;18.762;2023-04-24T03:15:07;99719.28;;;13.82;63.49
76460;BME280;65299;46.084;18.762;2023-04-24T03:18:07;99734.88;;;13.75;64.29
76460;BME280;65299;46.084;18.762;2023-04-24T03:21:08;99730.81;;;13.91;63.14
76460;BME280;65299;46.084;18.762;2023-04-24T03:24:08;99737.56;;;13.88;63.57
76460;BME280;65299;46.084;18.762;2023-04-24T03:27:09;99733.69;;;13.94;62.51
76460;BME280;65299;46.084;18.762;2023-04-24T03:30:10;99727.66;;;13.89;62.46
76460;BME280;65299;46.084;18.762;2023-04-24T03:33:10;99733.88;;;13.57;63.82
76460;BME280;65299;46.084;18.762;2023-04-24T03:36:11;99732.50;;;13.60;63.79
76460;BME280;65299;46.084;18.762;2023-04-24T03:39:11;99728.25;;;13.59;63.68
76460;BME280;65299;46.084;18.762;2023-04-24T03:42:13;99729.31;;;13.44;64.08
76460;BME280;65299;46.084;18.762;2023-04-24T03:45:13;99731.78;;;13.41;64.46
76460;BME280;65299;46.084;18.762;2023-04-24T03:48:14;99730.78;;;13.37;64.34
76460;BME280;65299;46.084;18.762;2023-04-24T03:51:15;99723.00;;;13.40;64.46
76460;BME280;65299;46.084;18.762;2023-04-24T03:54:15;99723.66;;;13.18;65.34
76460;BME280;65299;46.084;18.762;2023-04-24T03:57:16;99723.34;;;13.06;65.84
76460;BME280;65299;46.084;18.762;2023-04-24T04:00:16;99718.22;;;13.23;65.19
76460;BME280;65299;46.084;18.762;2023-04-24T04:03:16;99732.41;;;13.05;65.95
76460;BME280;65299;46.084;18.762;2023-04-24T04:06:17;99719.38;;;13.04;65.51
76460;BME280;65299;46.084;18.762;2023-04-24T04:09:18;99720.88;;;13.10;65.23
76460;BME280;65299;46.084;18.762;2023-04-24T04:12:18;99728.66;;;13.06;65.05
76460;BME280;65299;46.084;18.762;2023-04-24T04:15:19;99731.09;;;13.49;63.47
76460;BME280;65299;46.084;18.762;2023-04-24T04:18:19;99730.03;;;13.63;63.77
76460;BME280;65299;46.084;18.762;2023-04-24T04:21:20;99731.59;;;13.64;63.88
76460;BME280;65299;46.084;18.762;2023-04-24T04:24:20;99724.81;;;13.72;63.95
76460;BME280;65299;46.084;18.762;2023-04-24T04:27:22;99725.69;;;13.81;63.70
76460;BME280;65299;46.084;18.762;2023-04-24T04:30:22;99729.44;;;13.80;63.76
76460;BME280;65299;46.084;18.762;2023-04-24T04:33:24;99726.25;;;14.05;62.67
76460;BME280;65299;46.084;18.762;2023-04-24T04:36:24;99727.16;;;14.00;63.43
76460;BME280;65299;46.084;18.762;2023-04-24T04:39:26;99725.56;;;13.99;63.71
76460;BME280;65299;46.084;18.762;2023-04-24T04:42:28;99719.72;;;14.11;63.39
76460;BME280;65299;46.084;18.762;2023-04-24T04:45:29;99729.78;;;14.14;63.86
76460;BME280;65299;46.084;18.762;2023-04-24T04:48:29;99732.94;;;14.30;63.11
76460;BME280;65299;46.084;18.762;2023-04-24T04:51:31;99735.13;;;14.41;61.71
76460;BME280;65299;46.084;18.762;2023-04-24T04:54:32;99731.25;;;14.47;60.37
76460;BME280;65299;46.084;18.762;2023-04-24T04:57:32;99744.88;;;14.46;60.13
76460;BME280;65299;46.084;18.762;2023-04-24T05:00:32;99741.91;;;14.47;60.05
76460;BME280;65299;46.084;18.762;2023-04-24T05:03:35;99741.31;;;14.50;59.93
76460;BME280;65299;46.084;18.762;2023-04-24T05:06:36;99739.28;;;14.20;61.14
76460;BME280;65299;46.084;18.762;2023-04-24T05:09:37;99742.72;;;14.34;61.79
76460;BME280;65299;46.084;18.762;2023-04-24T05:12:37;99748.25;;;14.38;62.67
76460;BME280;65299;46.084;18.762;2023-04-24T05:15:38;99752.44;;;14.30;62.79
76460;BME280;65299;46.084;18.762;2023-04-24T05:18:38;99743.03;;;14.33;63.35
76460;BME280;65299;46.084;18.762;2023-04-24T05:21:39;99750.91;;;14.38;62.62
76460;BME280;65299;46.084;18.762;2023-04-24T05:24:39;99758.03;;;14.42;63.32
76460;BME280;65299;46.084;18.762;2023-04-24T05:27:40;99761.44;;;14.21;65.54
76460;BME280;65299;46.084;18.762;2023-04-24T05:30:40;99767.44;;;14.26;66.18
76460;BME280;65299;46.084;18.762;2023-04-24T05:33:41;99763.19;;;14.25;64.91
76460;BME280;65299;46.084;18.762;2023-04-24T05:36:41;99761.69;;;14.46;65.23
76460;BME280;65299;46.084;18.762;2023-04-24T05:39:42;99762.81;;;14.67;63.58
76460;BME280;65299;46.084;18.762;2023-04-24T05:42:43;99767.06;;;14.90;62.13
76460;BME280;65299;46.084;18.762;2023-04-24T05:45:43;99769.00;;;14.98;61.15
76460;BME280;65299;46.084;18.762;2023-04-24T05:48:43;99765.97;;;15.14;60.92
76460;BME280;65299;46.084;18.762;2023-04-24T05:51:44;99773.16;;;15.35;60.39
76460;BME280;65299;46.084;18.762;2023-04-24T05:54:44;99771.84;;;15.46;59.70
76460;BME280;65299;46.084;18.762;2023-04-24T05:57:45;99775.31;;;15.47;59.48
76460;BME280;65299;46.084;18.762;2023-04-24T06:00:46;99774.16;;;15.70;59.08
76460;BME280;65299;46.084;18.762;2023-04-24T06:03:46;99776.06;;;15.78;58.87
76460;BME280;65299;46.084;18.762;2023-04-24T06:06:47;99775.88;;;15.66;60.05
76460;BME280;65299;46.084;18.762;2023-04-24T06:09:50;99773.13;;;15.49;60.30
76460;BME280;65299;46.084;18.762;2023-04-24T06:12:51;99782.59;;;15.55;60.17
76460;BME280;65299;46.084;18.762;2023-04-24T06:15:52;99766.28;;;15.65;60.67
76460;BME280;65299;46.084;18.762;2023-04-24T06:18:53;99779.31;;;15.58;60.87
76460;BME280;65299;46.084;18.762;2023-04-24T06:21:53;99779.47;;;15.39;61.82
76460;BME280;65299;46.084;18.762;2023-04-24T06:24:53;99786.34;;;15.45;62.15
76460;BME280;65299;46.084;18.762;2023-04-24T06:27:55;99778.09;;;15.42;61.68
76460;BME280;65299;46.084;18.762;2023-04-24T06:30:55;99781.69;;;15.37;61.92
76460;BME280;65299;46.084;18.762;2023-04-24T06:33:56;99780.28;;;15.40;62.29
76460;BME280;65299;46.084;18.762;2023-04-24T06:36:56;99777.53;;;15.23;62.93
76460;BME280;65299;46.084;18.762;2023-04-24T06:39:57;99776.78;;;15.31;63.00
76460;BME280;65299;46.084;18.762;2023-04-24T06:42:57;99790.16;;;15.53;62.20
76460;BME280;65299;46.084;18.762;2023-04-24T06:46:00;99785.44;;;15.58;62.88
76460;BME280;65299;46.084;18.762;2023-04-24T06:49:00;99792.19;;;15.34;63.86
76460;BME280;65299;46.084;18.762;2023-04-24T06:52:01;99794.69;;;15.30;63.89
76460;BME280;65299;46.084;18.762;2023-04-24T06:55:02;99791.88;;;15.27;64.31
76460;BME280;65299;46.084;18.762;2023-04-24T06:58:03;99789.84;;;15.10;65.32
76460;BME280;65299;46.084;18.762;2023-04-24T07:01:03;99798.59;;;15.46;64.90
76460;BME280;65299;46.084;18.762;2023-04-24T07:04:04;99801.69;;;15.40;65.47
76460;BME280;65299;46.084;18.762;2023-04-24T07:07:04;99792.78;;;15.22;65.99
76460;BME280;65299;46.084;18.762;2023-04-24T07:10:07;99787.03;;;15.15;65.60
76460;BME280;65299;46.084;18.762;2023-04-24T07:13:08;99787.16;;;15.54;64.67
76460;BME280;65299;46.084;18.762;2023-04-24T07:16:09;99793.34;;;15.41;65.19
76460;BME280;65299;46.084;18.762;2023-04-24T07:19:10;99798.81;;;15.58;64.68
76460;BME280;65299;46.084;18.762;2023-04-24T07:22:11;99802.41;;;15.85;63.64
76460;BME280;65299;46.084;18.762;2023-04-24T07:25:16;99808.94;;;16.09;63.18
76460;BME280;65299;46.084;18.762;2023-04-24T07:28:17;99809.78;;;16.18;63.39
76460;BME280;65299;46.084;18.762;2023-04-24T07:31:18;99810.38;;;15.76;64.18
76460;BME280;65299;46.084;18.762;2023-04-24T07:34:18;99804.88;;;16.12;63.55
76460;BME280;65299;46.084;18.762;2023-04-24T07:37:18;99812.13;;;15.81;65.01
76460;BME280;65299;46.084;18.762;2023-04-24T07:40:19;99818.13;;;15.86;65.00
76460;BME280;65299;46.084;18.762;2023-04-24T07:43:20;99819.69;;;15.48;67.27
76460;BME280;65299;46.084;18.762;2023-04-24T07:46:21;99817.88;;;15.13;68.42
76460;BME280;65299;46.084;18.762;2023-04-24T07:49:23;99814.03;;;15.05;68.00
76460;BME280;65299;46.084;18.762;2023-04-24T07:52:24;99818.16;;;15.33;67.64
76460;BME280;65299;46.084;18.762;2023-04-24T07:55:24;99818.78;;;15.30;67.78
76460;BME280;65299;46.084;18.762;2023-04-24T07:58:25;99818.47;;;15.54;66.49
76460;BME280;65299;46.084;18.762;2023-04-24T08:01:25;99821.03;;;15.37;66.68
76460;BME280;65299;46.084;18.762;2023-04-24T08:04:26;99815.69;;;15.15;67.31
76460;BME280;65299;46.084;18.762;2023-04-24T08:07:26;99815.03;;;15.62;66.83
76460;BME280;65299;46.084;18.762;2023-04-24T08:10:26;99817.97;;;15.83;65.84
76460;BME280;65299;46.084;18.762;2023-04-24T08:13:27;99818.13;;;15.77;66.62
76460;BME280;65299;46.084;18.762;2023-04-24T08:16:27;99815.56;;;15.72;66.02
76460;BME280;65299;46.084;18.762;2023-04-24T08:19:28;99827.97;;;15.68;66.94
76460;BME280;65299;46.084;18.762;2023-04-24T08:22:28;99831.41;;;15.60;67.14
76460;BME280;65299;46.084;18.762;2023-04-24T08:25:29;99836.03;;;15.46;68.28
76460;BME280;65299;46.084;18.762;2023-04-24T08:28:29;99843.75;;;15.26;69.28
76460;BME280;65299;46.084;18.762;2023-04-24T08:31:29;99841.94;;;15.57;68.62
76460;BME280;65299;46.084;18.762;2023-04-24T08:34:30;99852.97;;;15.64;69.68
76460;BME280;65299;46.084;18.762;2023-04-24T08:37:30;99850.25;;;15.86;69.85
76460;BME280;65299;46.084;18.762;2023-04-24T08:40:34;99852.91;;;15.77;70.29
76460;BME280;65299;46.084;18.762;2023-04-24T08:43:35;99859.16;;;15.73;70.92
76460;BME280;65299;46.084;18.762;2023-04-24T08:46:37;99860.94;;;15.77;71.14
76460;BME280;65299;46.084;18.762;2023-04-24T08:49:38;99855.47;;;15.91;71.76
76460;BME280;65299;46.084;18.762;2023-04-24T08:52:39;99859.16;;;16.04;70.92
76460;BME280;65299;46.084;18.762;2023-04-24T08:55:41;99861.94;;;15.90;71.42
76460;BME280;65299;46.084;18.762;2023-04-24T08:58:42;99853.13;;;15.59;73.23
76460;BME280;65299;46.084;18.762;2023-04-24T09:01:45;99859.88;;;15.87;72.58
76460;BME280;65299;46.084;18.762;2023-04-24T09:08:45;99848.97;;;16.62;70.52
76460;BME280;65299;46.084;18.762;2023-04-24T09:11:46;99852.63;;;16.92;69.92
76460;BME280;65299;46.084;18.762;2023-04-24T09:14:48;99849.47;;;16.90;69.39
76460;BME280;65299;46.084;18.762;2023-04-24T09:17:49;99845.44;;;16.44;70.56
76460;BME280;65299;46.084;18.762;2023-04-24T09:21:03;99843.38;;;16.33;70.91
76460;BME280;65299;46.084;18.762;2023-04-24T09:24:07;99843.78;;;16.74;70.08
76460;BME280;65299;46.084;18.762;2023-04-24T09:27:07;99831.47;;;16.65;70.28
76460;BME280;65299;46.084;18.762;2023-04-24T09:30:11;99843.16;;;16.69;70.62
76460;BME280;65299;46.084;18.762;2023-04-24T09:33:15;99847.25;;;16.75;70.15
76460;BME280;65299;46.084;18.762;2023-04-24T09:36:17;99841.09;;;17.17;69.14
76460;BME280;65299;46.084;18.762;2023-04-24T09:39:18;99843.63;;;17.13;69.42
76460;BME280;65299;46.084;18.762;2023-04-24T09:42:21;99839.66;;;16.51;70.66
76460;BME280;65299;46.084;18.762;2023-04-24T09:45:22;99833.19;;;17.29;69.26
76460;BME280;65299;46.084;18.762;2023-04-24T09:48:35;99833.22;;;17.12;68.48
76460;BME280;65299;46.084;18.762;2023-04-24T09:51:37;99819.75;;;16.43;71.50
76460;BME280;65299;46.084;18.762;2023-04-24T09:54:39;99836.06;;;17.24;69.67
76460;BME280;65299;46.084;18.762;2023-04-24T09:57:50;99834.63;;;17.52;68.82
76460;BME280;65299;46.084;18.762;2023-04-24T10:00:53;99840.94;;;17.05;69.63
76460;BME280;65299;46.084;18.762;2023-04-24T10:03:54;99837.31;;;16.67;71.39
76460;BME280;65299;46.084;18.762;2023-04-24T10:06:56;99842.84;;;17.04;69.85
76460;BME280;65299;46.084;18.762;2023-04-24T10:09:57;99848.63;;;16.64;71.70
76460;BME280;65299;46.084;18.762;2023-04-24T10:12:59;99841.09;;;16.74;70.87
76460;BME280;65299;46.084;18.762;2023-04-24T10:16:00;99839.03;;;16.63;71.61
76460;BME280;65299;46.084;18.762;2023-04-24T10:19:02;99839.84;;;16.89;71.27
76460;BME280;65299;46.084;18.762;2023-04-24T10:22:03;99847.41;;;16.61;72.53
76460;BME280;65299;46.084;18.762;2023-04-24T10:25:05;99835.25;;;17.06;70.92
76460;BME280;65299;46.084;18.762;2023-04-24T10:28:06;99826.13;;;17.16;70.48
76460;BME280;65299;46.084;18.762;2023-04-24T10:31:07;99824.84;;;17.05;71.52
76460;BME280;65299;46.084;18.762;2023-04-24T10:34:10;99827.06;;;17.03;70.64
76460;BME280;65299;46.084;18.762;2023-04-24T10:37:10;99828.44;;;17.52;69.93
76460;BME280;65299;46.084;18.762;2023-04-24T10:40:12;99835.91;;;17.20;70.95
76460;BME280;65299;46.084;18.762;2023-04-24T10:43:17;99829.25;;;17.52;70.50
76460;BME280;65299;46.084;18.762;2023-04-24T10:46:21;99823.75;;;17.14;72.58
76460;BME280;65299;46.084;18.762;2023-04-24T10:49:29;99818.56;;;17.18;71.64
76460;BME280;65299;46.084;18.762;2023-04-24T10:52:47;99827.66;;;17.42;70.61
76460;BME280;65299;46.084;18.762;2023-04-24T10:55:52;99832.56;;;17.40;70.13
76460;BME280;65299;46.084;18.762;2023-04-24T10:58:57;99832.13;;;16.87;68.61
76460;BME280;65299;46.084;18.762;2023-04-24T11:01:58;99836.06;;;16.90;68.55
76460;BME280;65299;46.084;18.762;2023-04-24T11:05:03;99833.22;;;16.78;69.10
76460;BME280;65299;46.084;18.762;2023-04-24T11:08:14;99831.63;;;17.02;68.42
76460;BME280;65299;46.084;18.762;2023-04-24T11:11:17;99833.06;;;17.17;67.64
76460;BME280;65299;46.084;18.762;2023-04-24T11:14:18;99832.91;;;17.22;67.84
76460;BME280;65299;46.084;18.762;2023-04-24T11:17:34;99840.16;;;17.21;67.61
76460;BME280;65299;46.084;18.762;2023-04-24T11:20:42;99825.19;;;16.95;68.30
76460;BME280;65299;46.084;18.762;2023-04-24T11:23:42;99825.34;;;16.90;68.84
76460;BME280;65299;46.084;18.762;2023-04-24T11:26:44;99820.91;;;17.36;68.60
76460;BME280;65299;46.084;18.762;2023-04-24T11:29:48;99821.09;;;17.78;66.54
76460;BME280;65299;46.084;18.762;2023-04-24T11:32:50;99818.75;;;17.76;66.58
76460;BME280;65299;46.084;18.762;2023-04-24T11:35:51;99818.50;;;17.98;66.17
76460;BME280;65299;46.084;18.762;2023-04-24T11:38:52;99822.75;;;17.62;66.67
76460;BME280;65299;46.084;18.762;2023-04-24T11:41:52;99811.44;;;16.53;70.31
76460;BME280;65299;46.084;18.762;2023-04-24T11:44:54;99805.31;;;16.79;69.86
76460;BME280;65299;46.084;18.762;2023-04-24T11:47:55;99798.66;;;17.19;68.58
76460;BME280;65299;46.084;18.762;2023-04-24T11:50:56;99797.25;;;17.13;68.55
76460;BME280;65299;46.084;18.762;2023-04-24T11:53:56;99793.63;;;17.17;68.80
76460;BME280;65299;46.084;18.762;2023-04-24T11:56:57;99789.81;;;17.27;67.70
76460;BME280;65299;46.084;18.762;2023-04-24T11:59:57;99785.22;;;17.36;67.86
76460;BME280;65299;46.084;18.762;2023-04-24T12:03:24;99775.78;;;17.21;69.66
76460;BME280;65299;46.084;18.762;2023-04-24T12:06:25;99770.09;;;17.14;68.23
76460;BME280;65299;46.084;18.762;2023-04-24T12:09:25;99767.59;;;17.09;67.77
76460;BME280;65299;46.084;18.762;2023-04-24T12:12:27;99752.59;;;16.23;71.24
76460;BME280;65299;46.084;18.762;2023-04-24T12:15:27;99747.06;;;16.19;71.71
76460;BME280;65299;46.084;18.762;2023-04-24T12:18:28;99757.06;;;16.96;69.51
76460;BME280;65299;46.084;18.762;2023-04-24T12:21:28;99769.47;;;17.34;68.08
76460;BME280;65299;46.084;18.762;2023-04-24T12:24:32;99771.47;;;17.63;69.12
76460;BME280;65299;46.084;18.762;2023-04-24T12:27:32;99769.81;;;17.24;69.84
76460;BME280;65299;46.084;18.762;2023-04-24T12:30:38;99772.88;;;17.43;69.15
76460;BME280;65299;46.084;18.762;2023-04-24T12:33:39;99764.41;;;17.33;69.67
76460;BME280;65299;46.084;18.762;2023-04-24T12:36:40;99759.44;;;17.06;71.25
76460;BME280;65299;46.084;18.762;2023-04-24T12:39:57;99753.72;;;17.07;70.41
76460;BME280;65299;46.084;18.762;2023-04-24T12:42:58;99761.44;;;17.17;70.86
76460;BME280;65299;46.084;18.762;2023-04-24T12:45:59;99751.97;;;17.28;69.42
76460;BME280;65299;46.084;18.762;2023-04-24T12:48:59;99756.63;;;17.49;69.64
76460;BME280;65299;46.084;18.762;2023-04-24T12:52:00;99732.28;;;16.99;69.39
76460;BME280;65299;46.084;18.762;2023-04-24T12:55:01;99740.09;;;17.38;68.64
76460;BME280;65299;46.084;18.762;2023-04-24T12:58:02;99736.72;;;17.58;67.77
76460;BME280;65299;46.084;18.762;2023-04-24T13:01:03;99729.81;;;17.40;67.94
76460;BME280;65299;46.084;18.762;2023-04-24T13:04:04;99728.53;;;17.46;67.36
76460;BME280;65299;46.084;18.762;2023-04-24T13:07:05;99726.91;;;17.71;66.83
76460;BME280;65299;46.084;18.762;2023-04-24T13:10:06;99724.00;;;17.76;66.63
76460;BME280;65299;46.084;18.762;2023-04-24T13:13:07;99708.97;;;17.54;67.26
76460;BME280;65299;46.084;18.762;2023-04-24T13:16:07;99711.19;;;17.52;67.34
76460;BME280;65299;46.084;18.762;2023-04-24T13:19:08;99718.72;;;17.67;66.97
76460;BME280;65299;46.084;18.762;2023-04-24T13:22:10;99705.81;;;17.52;66.91
76460;BME280;65299;46.084;18.762;2023-04-24T13:25:10;99710.22;;;17.57;66.46
76460;BME280;65299;46.084;18.762;2023-04-24T13:28:11;99700.75;;;17.88;66.13
76460;BME280;65299;46.084;18.762;2023-04-24T13:31:11;99691.03;;;17.75;66.39
76460;BME280;65299;46.084;18.762;2023-04-24T13:34:13;99690.75;;;17.97;66.25
76460;BME280;65299;46.084;18.762;2023-04-24T13:37:13;99686.94;;;18.19;64.67
76460;BME280;65299;46.084;18.762;2023-04-24T13:40:13;99682.47;;;18.02;65.08
76460;BME280;65299;46.084;18.762;2023-04-24T13:43:14;99679.75;;;18.11;65.37
76460;BME280;65299;46.084;18.762;2023-04-24T13:46:16;99677.41;;;18.09;64.63
76460;BME280;65299;46.084;18.762;2023-04-24T13:49:16;99680.78;;;18.18;64.85
76460;BME280;65299;46.084;18.762;2023-04-24T13:52:17;99673.72;;;18.14;65.30
76460;BME280;65299;46.084;18.762;2023-04-24T13:55:17;99669.66;;;18.08;64.65
76460;BME280;65299;46.084;18.762;2023-04-24T13:58:18;99664.31;;;17.79;64.58
76460;BME280;65299;46.084;18.762;2023-04-24T14:01:18;99661.69;;;17.70;64.94
76460;BME280;65299;46.084;18.762;2023-04-24T14:04:18;99662.97;;;17.93;64.96
76460;BME280;65299;46.084;18.762;2023-04-24T14:07:19;99651.84;;;18.03;65.03
76460;BME280;65299;46.084;18.762;2023-04-24T14:10:19;99656.63;;;18.18;65.12
76460;BME280;65299;46.084;18.762;2023-04-24T14:13:20;99650.19;;;17.90;65.06
76460;BME280;65299;46.084;18.762;2023-04-24T14:16:20;99653.59;;;17.79;64.18
76460;BME280;65299;46.084;18.762;2023-04-24T14:19:21;99650.41;;;18.06;63.65
76460;BME280;65299;46.084;18.762;2023-04-24T14:22:22;99644.09;;;17.81;63.94
76460;BME280;65299;46.084;18.762;2023-04-24T14:25:22;99644.34;;;17.88;63.76
76460;BME280;65299;46.084;18.762;2023-04-24T14:28:23;99637.03;;;17.97;63.84
76460;BME280;65299;46.084;18.762;2023-04-24T14:31:24;99637.81;;;17.98;64.28
76460;BME280;65299;46.084;18.762;2023-04-24T14:34:24;99630.53;;;17.78;64.73
76460;BME280;65299;46.084;18.762;2023-04-24T14:37:25;99633.69;;;18.00;64.30
76460;BME280;65299;46.084;18.762;2023-04-24T14:40:25;99630.09;;;18.17;63.76
76460;BME280;65299;46.084;18.762;2023-04-24T14:43:26;99630.66;;;18.22;64.10
76460;BME280;65299;46.084;18.762;2023-04-24T14:46:26;99633.88;;;18.57;63.00
76460;BME280;65299;46.084;18.762;2023-04-24T14:49:26;99625.53;;;18.71;62.26
76460;BME280;65299;46.084;18.762;2023-04-24T14:52:27;99627.81;;;18.48;62.02
76460;BME280;65299;46.084;18.762;2023-04-24T14:55:27;99625.34;;;18.35;61.74
76460;BME280;65299;46.084;18.762;2023-04-24T14:58:28;99629.28;;;18.58;62.28
76460;BME280;65299;46.084;18.762;2023-04-24T15:01:29;99626.13;;;18.56;61.50
76460;BME280;65299;46.084;18.762;2023-04-24T15:04:29;99620.19;;;18.83;61.50
76460;BME280;65299;46.084;18.762;2023-04-24T15:07:31;99622.00;;;18.38;61.99
76460;BME280;65299;46.084;18.762;2023-04-24T15:10:31;99617.16;;;18.52;60.26
76460;BME280;65299;46.084;18.762;2023-04-24T15:13:32;99613.56;;;18.48;60.42
76460;BME280;65299;46.084;18.762;2023-04-24T15:16:32;99610.59;;;18.41;60.27
76460;BME280;65299;46.084;18.762;2023-04-24T15:19:33;99615.16;;;18.49;61.15
76460;BME280;65299;46.084;18.762;2023-04-24T15:22:33;99617.25;;;18.43;60.74
76460;BME280;65299;46.084;18.762;2023-04-24T15:25:34;99620.84;;;18.27;60.60
76460;BME280;65299;46.084;18.762;2023-04-24T15:28:35;99615.84;;;18.37;60.59
76460;BME280;65299;46.084;18.762;2023-04-24T15:31:39;99619.50;;;18.33;60.28
76460;BME280;65299;46.084;18.762;2023-04-24T15:34:40;99608.72;;;18.00;61.93
76460;BME280;65299;46.084;18.762;2023-04-24T15:37:45;99609.91;;;18.11;61.09
76460;BME280;65299;46.084;18.762;2023-04-24T15:40:45;99619.97;;;18.35;60.86
76460;BME280;65299;46.084;18.762;2023-04-24T15:43:45;99621.56;;;18.36;61.13
76460;BME280;65299;46.084;18.762;2023-04-24T15:46:46;99619.22;;;18.13;61.92
76460;BME280;65299;46.084;18.762;2023-04-24T15:49:47;99622.56;;;18.10;61.72
76460;BME280;65299;46.084;18.762;2023-04-24T15:52:47;99613.97;;;18.17;62.12